sensor_id;sensor_type;location;lat;lon;timestamp;temperature;humidity
23591;DHT22;11973;52.098;7.582;2023-01-24T00:00:48;3.20;99.90
23591;DHT22;11973;52.098;7.582;2023-01-24T00:03:14;3.30;99.90
23591;DHT22;11973;52.098;7.582;2023-01-24T00:05:46;3.20;99.90
23591;DHT22;11973;52.098;7.582;2023-01-24T00:08:14;3.30;99.90
23591;DHT22;11973;52.098;7.582;2023-01-24T00:10:40;3.30;99.90
23591;DHT22;11973;52.098;7.582;2023-01-24T00:13:11;3.20;99.90
23591;DHT22;11973;52.098;7.582;2023-01-24T00:15:37;3.30;99.90
23591;DHT22;11973;52.098;7.582;2023-01-24T00:18:02;3.30;99.90
23591;DHT22;11973;52.098;7.582;2023-01-24T00:20:28;3.50;99.90
23591;DHT22;11973;52.098;7.582;2023-01-24T00:22:54;3.40;99.90
23591;DHT22;11973;52.098;7.582;2023-01-24T00:25:20;3.30;99.90
23591;DHT22;11973;52.098;7.582;2023-01-24T00:27:46;3.30;99.90
23591;DHT22;11973;52.098;7.582;2023-01-24T00:30:11;3.30;99.90
23591;DHT22;11973;52.098;7.582;2023-01-24T00:32:38;3.30;99.90
23591;DHT22;11973;52.098;7.582;2023-01-24T00:35:04;3.30;99.90
23591;DHT22;11973;52.098;7.582;2023-01-24T00:37:30;3.30;99.90
23591;DHT22;11973;52.098;7.582;2023-01-24T00:39:56;3.30;99.90
23591;DHT22;11973;52.098;7.582;2023-01-24T00:42:21;3.30;99.90
23591;DHT22;11973;52.098;7.582;2023-01-24T00:44:47;3.30;99.90
23591;DHT22;11973;52.098;7.582;2023-01-24T00:47:13;3.30;99.90
23591;DHT22;11973;52.098;7.582;2023-01-24T00:49:39;3.30;99.90
23591;DHT22;11973;52.098;7.582;2023-01-24T00:52:04;3.30;99.90
23591;DHT22;11973;52.098;7.582;2023-01-24T00:54:30;3.30;99.90
23591;DHT22;11973;52.098;7.582;2023-01-24T00:56:56;3.30;99.90
23591;DHT22;11973;52.098;7.582;2023-01-24T00:59:21;3.30;99.90
23591;DHT22;11973;52.098;7.582;2023-01-24T01:01:48;3.20;99.90
23591;DHT22;11973;52.098;7.582;2023-01-24T01:04:14;3.40;99.90
23591;DHT22;11973;52.098;7.582;2023-01-24T01:06:40;3.30;99.90
23591;DHT22;11973;52.098;7.582;2023-01-24T01:09:06;3.30;99.90
23591;DHT22;11973;52.098;7.582;2023-01-24T01:11:32;3.20;99.90
23591;DHT22;11973;52.098;7.582;2023-01-24T01:13:58;3.30;99.90
23591;DHT22;11973;52.098;7.582;2023-01-24T01:16:24;3.30;99.90
23591;DHT22;11973;52.098;7.582;2023-01-24T01:18:53;3.30;99.90
23591;DHT22;11973;52.098;7.582;2023-01-24T01:21:20;3.20;99.90
23591;DHT22;11973;52.098;7.582;2023-01-24T01:23:47;3.30;99.90
23591;DHT22;11973;52.098;7.582;2023-01-24T01:26:16;3.20;99.90
23591;DHT22;11973;52.098;7.582;2023-01-24T01:28:42;3.20;99.90
23591;DHT22;11973;52.098;7.582;2023-01-24T01:31:08;3.30;99.90
23591;DHT22;11973;52.098;7.582;2023-01-24T01:33:34;3.20;99.90
23591;DHT22;11973;52.098;7.582;2023-01-24T01:36:00;3.20;99.90
23591;DHT22;11973;52.098;7.582;2023-01-24T01:38:26;3.20;99.90
23591;DHT22;11973;52.098;7.582;2023-01-24T01:40:54;3.20;99.90
23591;DHT22;11973;52.098;7.582;2023-01-24T01:43:22;3.20;99.90
23591;DHT22;11973;52.098;7.582;2023-01-24T01:45:51;3.20;99.90
23591;DHT22;11973;52.098;7.582;2023-01-24T01:54:10;3.20;99.90
23591;DHT22;11973;52.098;7.582;2023-01-24T01:56:46;3.20;99.90
23591;DHT22;11973;52.098;7.582;2023-01-24T01:59:17;3.20;99.90
23591;DHT22;11973;52.098;7.582;2023-01-24T02:01:44;3.20;99.90
23591;DHT22;11973;52.098;7.582;2023-01-24T02:04:17;3.20;99.90
23591;DHT22;11973;52.098;7.582;2023-01-24T02:09:30;3.20;99.90
23591;DHT22;11973;52.098;7.582;2023-01-24T02:12:01;3.20;99.90
23591;DHT22;11973;52.098;7.582;2023-01-24T02:14:29;3.20;99.90
23591;DHT22;11973;52.098;7.582;2023-01-24T02:17:31;3.20;99.90
23591;DHT22;11973;52.098;7.582;2023-01-24T02:22:54;3.10;99.90
23591;DHT22;11973;52.098;7.582;2023-01-24T02:28:09;3.10;99.90
23591;DHT22;11973;52.098;7.582;2023-01-24T02:30:37;3.10;99.90
23591;DHT22;11973;52.098;7.582;2023-01-24T02:33:15;3.10;99.90
23591;DHT22;11973;52.098;7.582;2023-01-24T02:35:42;3.10;99.90
23591;DHT22;11973;52.098;7.582;2023-01-24T02:38:27;3.30;99.90
23591;DHT22;11973;52.098;7.582;2023-01-24T02:40:57;3.10;99.90
23591;DHT22;11973;52.098;7.582;2023-01-24T02:43:35;3.10;99.90
23591;DHT22;11973;52.098;7.582;2023-01-24T02:46:03;3.10;99.90
23591;DHT22;11973;52.098;7.582;2023-01-24T02:48:29;3.10;99.90
23591;DHT22;11973;52.098;7.582;2023-01-24T02:50:55;3.10;99.90
23591;DHT22;11973;52.098;7.582;2023-01-24T02:53:40;3.10;99.90
23591;DHT22;11973;52.098;7.582;2023-01-24T02:56:08;3.10;99.90
23591;DHT22;11973;52.098;7.582;2023-01-24T02:58:53;3.10;99.90
23591;DHT22;11973;52.098;7.582;2023-01-24T03:01:20;3.10;99.90
23591;DHT22;11973;52.098;7.582;2023-01-24T03:03:51;3.10;99.90
23591;DHT22;11973;52.098;7.582;2023-01-24T03:06:18;3.10;99.90
23591;DHT22;11973;52.098;7.582;2023-01-24T03:08:44;3.10;99.90
23591;DHT22;11973;52.098;7.582;2023-01-24T03:11:23;3.10;99.90
23591;DHT22;11973;52.098;7.582;2023-01-24T03:13:49;3.00;99.90
23591;DHT22;11973;52.098;7.582;2023-01-24T03:16:34;3.10;99.90
23591;DHT22;11973;52.098;7.582;2023-01-24T03:19:19;3.00;99.90
23591;DHT22;11973;52.098;7.582;2023-01-24T03:22:04;3.10;99.90
23591;DHT22;11973;52.098;7.582;2023-01-24T03:24:48;3.10;99.90
23591;DHT22;11973;52.098;7.582;2023-01-24T03:27:33;3.10;99.90
23591;DHT22;11973;52.098;7.582;2023-01-24T03:30:23;3.00;99.90
23591;DHT22;11973;52.098;7.582;2023-01-24T03:33:07;3.00;99.90
23591;DHT22;11973;52.098;7.582;2023-01-24T03:35:51;3.00;99.90
23591;DHT22;11973;52.098;7.582;2023-01-24T03:38:23;3.00;99.90
23591;DHT22;11973;52.098;7.582;2023-01-24T03:41:09;3.00;99.90
23591;DHT22;11973;52.098;7.582;2023-01-24T03:43:36;3.10;99.90
23591;DHT22;11973;52.098;7.582;2023-01-24T03:46:03;3.00;99.90
23591;DHT22;11973;52.098;7.582;2023-01-24T03:48:43;3.00;99.90
23591;DHT22;11973;52.098;7.582;2023-01-24T03:51:08;3.20;99.90
23591;DHT22;11973;52.098;7.582;2023-01-24T03:53:53;3.00;99.90
23591;DHT22;11973;52.098;7.582;2023-01-24T03:56:22;3.00;99.90
23591;DHT22;11973;52.098;7.582;2023-01-24T03:58:55;3.10;99.90
23591;DHT22;11973;52.098;7.582;2023-01-24T04:01:23;3.00;99.90
23591;DHT22;11973;52.098;7.582;2023-01-24T04:03:59;3.00;99.90
23591;DHT22;11973;52.098;7.582;2023-01-24T04:06:25;3.00;99.90
23591;DHT22;11973;52.098;7.582;2023-01-24T04:08:53;3.00;99.90
23591;DHT22;11973;52.098;7.582;2023-01-24T04:11:20;3.00;99.90
23591;DHT22;11973;52.098;7.582;2023-01-24T04:13:51;3.00;99.90
23591;DHT22;11973;52.098;7.582;2023-01-24T04:16:17;2.90;99.90
23591;DHT22;11973;52.098;7.582;2023-01-24T04:18:51;2.90;99.90
23591;DHT22;11973;52.098;7.582;2023-01-24T04:21:20;2.90;99.90
23591;DHT22;11973;52.098;7.582;2023-01-24T04:23:46;3.00;99.90
23591;DHT22;11973;52.098;7.582;2023-01-24T04:26:13;2.90;99.90
23591;DHT22;11973;52.098;7.582;2023-01-24T04:28:39;2.90;99.90
23591;DHT22;11973;52.098;7.582;2023-01-24T04:31:05;2.90;99.90
23591;DHT22;11973;52.098;7.582;2023-01-24T04:33:49;2.90;99.90
23591;DHT22;11973;52.098;7.582;2023-01-24T04:36:16;2.90;99.90
23591;DHT22;11973;52.098;7.582;2023-01-24T04:38:42;2.90;99.90
23591;DHT22;11973;52.098;7.582;2023-01-24T04:41:22;2.90;99.90
23591;DHT22;11973;52.098;7.582;2023-01-24T04:43:49;2.90;99.90
23591;DHT22;11973;52.098;7.582;2023-01-24T04:46:15;2.90;99.90
23591;DHT22;11973;52.098;7.582;2023-01-24T04:48:53;2.90;99.90
23591;DHT22;11973;52.098;7.582;2023-01-24T04:51:20;2.90;99.90
23591;DHT22;11973;52.098;7.582;2023-01-24T04:53:47;2.90;99.90
23591;DHT22;11973;52.098;7.582;2023-01-24T04:56:15;2.90;99.90
23591;DHT22;11973;52.098;7.582;2023-01-24T04:58:41;2.90;99.90
23591;DHT22;11973;52.098;7.582;2023-01-24T05:01:07;2.90;99.90
23591;DHT22;11973;52.098;7.582;2023-01-24T05:03:39;2.90;99.90
23591;DHT22;11973;52.098;7.582;2023-01-24T05:06:05;2.90;99.90
23591;DHT22;11973;52.098;7.582;2023-01-24T05:08:32;2.90;99.90
23591;DHT22;11973;52.098;7.582;2023-01-24T05:11:03;2.90;99.90
23591;DHT22;11973;52.098;7.582;2023-01-24T05:13:32;2.90;99.90
23591;DHT22;11973;52.098;7.582;2023-01-24T06:01:53;2.80;99.90
23591;DHT22;11973;52.098;7.582;2023-01-24T06:04:21;2.80;99.90
23591;DHT22;11973;52.098;7.582;2023-01-24T06:06:48;2.80;99.90
23591;DHT22;11973;52.098;7.582;2023-01-24T06:09:13;2.80;99.90
23591;DHT22;11973;52.098;7.582;2023-01-24T06:11:39;2.90;99.90
23591;DHT22;11973;52.098;7.582;2023-01-24T06:14:16;2.80;99.90
23591;DHT22;11973;52.098;7.582;2023-01-24T06:16:43;2.80;99.90
23591;DHT22;11973;52.098;7.582;2023-01-24T06:19:13;2.80;99.90
23591;DHT22;11973;52.098;7.582;2023-01-24T06:21:48;2.80;99.90
23591;DHT22;11973;52.098;7.582;2023-01-24T06:24:22;2.80;99.90
23591;DHT22;11973;52.098;7.582;2023-01-24T06:26:57;2.80;99.90
23591;DHT22;11973;52.098;7.582;2023-01-24T06:29:23;2.80;99.90
23591;DHT22;11973;52.098;7.582;2023-01-24T06:32:08;2.80;99.90
23591;DHT22;11973;52.098;7.582;2023-01-24T06:37:44;2.80;99.90
23591;DHT22;11973;52.098;7.582;2023-01-24T06:40:12;2.80;99.90
23591;DHT22;11973;52.098;7.582;2023-01-24T06:42:39;2.70;99.90
23591;DHT22;11973;52.098;7.582;2023-01-24T06:45:06;2.70;99.90
23591;DHT22;11973;52.098;7.582;2023-01-24T06:47:32;2.80;99.90
23591;DHT22;11973;52.098;7.582;2023-01-24T06:49:57;2.80;99.90
23591;DHT22;11973;52.098;7.582;2023-01-24T06:52:23;2.80;99.90
23591;DHT22;11973;52.098;7.582;2023-01-24T06:54:49;2.80;99.90
23591;DHT22;11973;52.098;7.582;2023-01-24T06:57:15;2.70;99.90
23591;DHT22;11973;52.098;7.582;2023-01-24T06:59:40;2.70;99.90
23591;DHT22;11973;52.098;7.582;2023-01-24T07:02:07;2.70;99.90
23591;DHT22;11973;52.098;7.582;2023-01-24T07:04:34;2.70;99.90
23591;DHT22;11973;52.098;7.582;2023-01-24T07:07:04;2.70;99.90
23591;DHT22;11973;52.098;7.582;2023-01-24T07:09:32;2.70;99.90
23591;DHT22;11973;52.098;7.582;2023-01-24T07:11:57;2.70;99.90
23591;DHT22;11973;52.098;7.582;2023-01-24T07:14:24;2.70;99.90
23591;DHT22;11973;52.098;7.582;2023-01-24T07:16:51;2.70;99.90
23591;DHT22;11973;52.098;7.582;2023-01-24T07:19:19;2.70;99.90
23591;DHT22;11973;52.098;7.582;2023-01-24T07:21:47;2.80;99.90
23591;DHT22;11973;52.098;7.582;2023-01-24T07:24:16;2.70;99.90
23591;DHT22;11973;52.098;7.582;2023-01-24T07:26:43;2.70;99.90
23591;DHT22;11973;52.098;7.582;2023-01-24T07:29:09;2.70;99.90
23591;DHT22;11973;52.098;7.582;2023-01-24T07:31:34;2.70;99.90
23591;DHT22;11973;52.098;7.582;2023-01-24T07:34:00;2.70;99.90
23591;DHT22;11973;52.098;7.582;2023-01-24T07:36:26;2.80;99.90
23591;DHT22;11973;52.098;7.582;2023-01-24T07:38:56;2.70;99.90
23591;DHT22;11973;52.098;7.582;2023-01-24T07:41:22;2.70;99.90
23591;DHT22;11973;52.098;7.582;2023-01-24T07:43:52;2.70;99.90
23591;DHT22;11973;52.098;7.582;2023-01-24T07:46:19;2.70;99.90
23591;DHT22;11973;52.098;7.582;2023-01-24T07:48:44;2.80;99.90
23591;DHT22;11973;52.098;7.582;2023-01-24T07:51:10;2.70;99.90
23591;DHT22;11973;52.098;7.582;2023-01-24T07:53:36;2.80;99.90
23591;DHT22;11973;52.098;7.582;2023-01-24T07:56:03;2.90;99.90
23591;DHT22;11973;52.098;7.582;2023-01-24T07:58:29;2.80;99.90
23591;DHT22;11973;52.098;7.582;2023-01-24T08:00:55;2.80;99.90
23591;DHT22;11973;52.098;7.582;2023-01-24T08:03:21;2.80;99.90
23591;DHT22;11973;52.098;7.582;2023-01-24T08:05:46;2.80;99.90
23591;DHT22;11973;52.098;7.582;2023-01-24T08:08:12;2.80;99.90
23591;DHT22;11973;52.098;7.582;2023-01-24T08:10:38;2.90;99.90
23591;DHT22;11973;52.098;7.582;2023-01-24T08:13:03;2.80;99.90
23591;DHT22;11973;52.098;7.582;2023-01-24T08:15:29;2.80;99.90
23591;DHT22;11973;52.098;7.582;2023-01-24T08:17:55;2.80;99.90
23591;DHT22;11973;52.098;7.582;2023-01-24T08:20:20;2.80;99.90
23591;DHT22;11973;52.098;7.582;2023-01-24T08:22:46;2.80;99.90
23591;DHT22;11973;52.098;7.582;2023-01-24T08:25:13;2.90;99.90
23591;DHT22;11973;52.098;7.582;2023-01-24T08:27:41;2.80;99.90
23591;DHT22;11973;52.098;7.582;2023-01-24T08:30:09;2.80;99.90
23591;DHT22;11973;52.098;7.582;2023-01-24T08:32:38;2.90;99.90
23591;DHT22;11973;52.098;7.582;2023-01-24T08:35:04;2.90;99.90
23591;DHT22;11973;52.098;7.582;2023-01-24T08:37:30;2.90;99.90
23591;DHT22;11973;52.098;7.582;2023-01-24T08:39:56;2.90;99.90
23591;DHT22;11973;52.098;7.582;2023-01-24T08:42:24;2.90;99.90
23591;DHT22;11973;52.098;7.582;2023-01-24T08:44:50;2.90;99.90
23591;DHT22;11973;52.098;7.582;2023-01-24T08:47:17;2.90;99.90
23591;DHT22;11973;52.098;7.582;2023-01-24T08:49:43;3.10;99.90
23591;DHT22;11973;52.098;7.582;2023-01-24T08:52:09;3.00;99.90
23591;DHT22;11973;52.098;7.582;2023-01-24T08:54:35;3.00;99.90
23591;DHT22;11973;52.098;7.582;2023-01-24T08:57:04;3.00;99.90
23591;DHT22;11973;52.098;7.582;2023-01-24T08:59:34;3.20;99.90
23591;DHT22;11973;52.098;7.582;2023-01-24T09:02:00;3.10;99.90
23591;DHT22;11973;52.098;7.582;2023-01-24T09:04:26;3.10;99.90
23591;DHT22;11973;52.098;7.582;2023-01-24T09:06:52;3.10;99.90
23591;DHT22;11973;52.098;7.582;2023-01-24T09:09:18;3.10;99.90
23591;DHT22;11973;52.098;7.582;2023-01-24T09:11:44;3.10;99.90
23591;DHT22;11973;52.098;7.582;2023-01-24T09:14:10;3.10;99.90
23591;DHT22;11973;52.098;7.582;2023-01-24T09:16:36;3.20;99.90
23591;DHT22;11973;52.098;7.582;2023-01-24T09:19:02;3.20;99.90
23591;DHT22;11973;52.098;7.582;2023-01-24T09:21:27;3.20;99.90
23591;DHT22;11973;52.098;7.582;2023-01-24T09:23:54;3.20;99.90
23591;DHT22;11973;52.098;7.582;2023-01-24T09:26:20;3.20;99.90
23591;DHT22;11973;52.098;7.582;2023-01-24T09:28:46;3.20;99.90
23591;DHT22;11973;52.098;7.582;2023-01-24T09:31:11;3.20;99.90
23591;DHT22;11973;52.098;7.582;2023-01-24T09:33:38;3.20;99.90
23591;DHT22;11973;52.098;7.582;2023-01-24T09:36:04;3.20;99.90
23591;DHT22;11973;52.098;7.582;2023-01-24T09:38:32;3.30;99.90
23591;DHT22;11973;52.098;7.582;2023-01-24T09:41:16;3.30;99.90
23591;DHT22;11973;52.098;7.582;2023-01-24T09:43:48;3.30;99.90
23591;DHT22;11973;52.098;7.582;2023-01-24T09:48:46;3.40;99.90
23591;DHT22;11973;52.098;7.582;2023-01-24T09:51:17;3.30;99.90
23591;DHT22;11973;52.098;7.582;2023-01-24T09:53:49;3.30;99.90
23591;DHT22;11973;52.098;7.582;2023-01-24T09:56:34;3.30;99.90
23591;DHT22;11973;52.098;7.582;2023-01-24T10:01:41;3.30;99.90
23591;DHT22;11973;52.098;7.582;2023-01-24T10:04:30;3.40;99.90
23591;DHT22;11973;52.098;7.582;2023-01-24T10:23:53;3.50;99.90
23591;DHT22;11973;52.098;7.582;2023-01-24T10:26:47;3.50;99.90
23591;DHT22;11973;52.098;7.582;2023-01-24T10:29:27;3.50;99.90
23591;DHT22;11973;52.098;7.582;2023-01-24T10:35:10;3.50;99.90
23591;DHT22;11973;52.098;7.582;2023-01-24T10:37:26;3.50;99.90
23591;DHT22;11973;52.098;7.582;2023-01-24T10:39:53;3.60;99.90
23591;DHT22;11973;52.098;7.582;2023-01-24T10:42:27;3.60;99.90
23591;DHT22;11973;52.098;7.582;2023-01-24T10:44:55;3.60;99.90
23591;DHT22;11973;52.098;7.582;2023-01-24T10:47:50;3.70;99.90
23591;DHT22;11973;52.098;7.582;2023-01-24T10:50:22;3.60;99.90
23591;DHT22;11973;52.098;7.582;2023-01-24T10:52:49;3.60;99.90
23591;DHT22;11973;52.098;7.582;2023-01-24T10:55:32;3.60;99.90
23591;DHT22;11973;52.098;7.582;2023-01-24T10:58:03;3.80;99.90
23591;DHT22;11973;52.098;7.582;2023-01-24T11:00:41;3.70;99.90
23591;DHT22;11973;52.098;7.582;2023-01-24T11:03:22;3.70;99.90
23591;DHT22;11973;52.098;7.582;2023-01-24T11:05:50;3.70;99.90
23591;DHT22;11973;52.098;7.582;2023-01-24T11:08:32;3.70;99.90
23591;DHT22;11973;52.098;7.582;2023-01-24T11:10:59;3.80;99.90
23591;DHT22;11973;52.098;7.582;2023-01-24T11:13:39;3.80;99.90
23591;DHT22;11973;52.098;7.582;2023-01-24T11:18:54;3.80;99.90
23591;DHT22;11973;52.098;7.582;2023-01-24T11:21:24;3.80;99.90
23591;DHT22;11973;52.098;7.582;2023-01-24T11:24:12;3.90;99.90
23591;DHT22;11973;52.098;7.582;2023-01-24T11:27:04;3.90;99.90
23591;DHT22;11973;52.098;7.582;2023-01-24T11:29:31;3.90;99.90
23591;DHT22;11973;52.098;7.582;2023-01-24T11:32:26;3.90;99.90
23591;DHT22;11973;52.098;7.582;2023-01-24T11:35:16;3.90;99.90
23591;DHT22;11973;52.098;7.582;2023-01-24T11:38:04;3.90;99.90
23591;DHT22;11973;52.098;7.582;2023-01-24T11:40:39;3.90;99.90
23591;DHT22;11973;52.098;7.582;2023-01-24T11:55:03;3.90;99.90
23591;DHT22;11973;52.098;7.582;2023-01-24T12:00:43;4.00;99.90
23591;DHT22;11973;52.098;7.582;2023-01-24T12:22:45;4.00;99.90
23591;DHT22;11973;52.098;7.582;2023-01-24T12:25:37;4.00;99.90
23591;DHT22;11973;52.098;7.582;2023-01-24T12:28:05;4.00;99.90
23591;DHT22;11973;52.098;7.582;2023-01-24T12:30:40;4.00;99.90
23591;DHT22;11973;52.098;7.582;2023-01-24T12:33:22;4.00;99.90
23591;DHT22;11973;52.098;7.582;2023-01-24T12:36:16;4.00;99.90
23591;DHT22;11973;52.098;7.582;2023-01-24T12:38:45;4.00;99.90
23591;DHT22;11973;52.098;7.582;2023-01-24T12:41:31;4.00;99.90
23591;DHT22;11973;52.098;7.582;2023-01-24T12:44:32;4.00;99.90
23591;DHT22;11973;52.098;7.582;2023-01-24T12:50:29;4.00;99.90
23591;DHT22;11973;52.098;7.582;2023-01-24T12:58:29;4.10;99.90
23591;DHT22;11973;52.098;7.582;2023-01-24T13:07:06;4.10;99.90
23591;DHT22;11973;52.098;7.582;2023-01-24T13:09:55;4.10;99.90
23591;DHT22;11973;52.098;7.582;2023-01-24T13:12:29;4.10;99.90
23591;DHT22;11973;52.098;7.582;2023-01-24T13:15:14;4.10;99.90
23591;DHT22;11973;52.098;7.582;2023-01-24T13:18:01;4.10;99.90
23591;DHT22;11973;52.098;7.582;2023-01-24T13:20:42;4.10;99.90
23591;DHT22;11973;52.098;7.582;2023-01-24T13:23:34;4.10;99.90
23591;DHT22;11973;52.098;7.582;2023-01-24T13:31:29;4.10;99.90
23591;DHT22;11973;52.098;7.582;2023-01-24T13:34:01;4.10;99.90
23591;DHT22;11973;52.098;7.582;2023-01-24T13:36:34;4.00;99.90
23591;DHT22;11973;52.098;7.582;2023-01-24T13:39:03;4.00;99.90
23591;DHT22;11973;52.098;7.582;2023-01-24T13:49:34;4.00;99.90
23591;DHT22;11973;52.098;7.582;2023-01-24T13:52:06;4.00;99.90
23591;DHT22;11973;52.098;7.582;2023-01-24T13:54:49;4.00;99.90
23591;DHT22;11973;52.098;7.582;2023-01-24T13:57:22;4.00;99.90
23591;DHT22;11973;52.098;7.582;2023-01-24T14:08:43;3.90;99.90
23591;DHT22;11973;52.098;7.582;2023-01-24T14:21:45;3.90;99.90
23591;DHT22;11973;52.098;7.582;2023-01-24T14:25:14;3.80;99.90
23591;DHT22;11973;52.098;7.582;2023-01-24T14:27:39;3.80;99.90
23591;DHT22;11973;52.098;7.582;2023-01-24T14:37:41;3.70;99.90
23591;DHT22;11973;52.098;7.582;2023-01-24T14:40:34;3.70;99.90
23591;DHT22;11973;52.098;7.582;2023-01-24T14:43:04;3.70;99.90
23591;DHT22;11973;52.098;7.582;2023-01-24T14:45:34;3.70;99.90
23591;DHT22;11973;52.098;7.582;2023-01-24T14:48:01;3.60;99.90
23591;DHT22;11973;52.098;7.582;2023-01-24T14:50:34;3.60;99.90
23591;DHT22;11973;52.098;7.582;2023-01-24T14:53:22;3.60;99.90
23591;DHT22;11973;52.098;7.582;2023-01-24T14:55:50;3.60;99.90
23591;DHT22;11973;52.098;7.582;2023-01-24T15:00:49;3.50;99.90
23591;DHT22;11973;52.098;7.582;2023-01-24T15:03:18;3.50;99.90
23591;DHT22;11973;52.098;7.582;2023-01-24T15:05:51;3.50;99.90
23591;DHT22;11973;52.098;7.582;2023-01-24T15:08:17;3.50;99.90
23591;DHT22;11973;52.098;7.582;2023-01-24T15:10:43;3.50;99.90
23591;DHT22;11973;52.098;7.582;2023-01-24T15:13:31;3.50;99.90
23591;DHT22;11973;52.098;7.582;2023-01-24T15:15:58;3.40;99.90
23591;DHT22;11973;52.098;7.582;2023-01-24T15:20:55;3.40;99.90
23591;DHT22;11973;52.098;7.582;2023-01-24T15:23:23;3.40;99.90
23591;DHT22;11973;52.098;7.582;2023-01-24T15:25:53;3.40;99.90
23591;DHT22;11973;52.098;7.582;2023-01-24T15:28:29;3.40;99.90
23591;DHT22;11973;52.098;7.582;2023-01-24T15:30:56;3.30;99.90
23591;DHT22;11973;52.098;7.582;2023-01-24T15:33:40;3.60;99.90
23591;DHT22;11973;52.098;7.582;2023-01-24T15:38:52;3.30;99.90
23591;DHT22;11973;52.098;7.582;2023-01-24T15:41:25;3.30;99.90
23591;DHT22;11973;52.098;7.582;2023-01-24T15:44:12;3.20;99.90
23591;DHT22;11973;52.098;7.582;2023-01-24T15:46:43;3.20;99.90
23591;DHT22;11973;52.098;7.582;2023-01-24T15:54:46;3.20;99.90
23591;DHT22;11973;52.098;7.582;2023-01-24T15:57:18;3.20;99.90
23591;DHT22;11973;52.098;7.582;2023-01-24T15:59:47;3.10;99.90
23591;DHT22;11973;52.098;7.582;2023-01-24T16:02:14;3.10;99.90
23591;DHT22;11973;52.098;7.582;2023-01-24T16:04:40;3.10;99.90
23591;DHT22;11973;52.098;7.582;2023-01-24T16:07:06;3.10;99.90
23591;DHT22;11973;52.098;7.582;2023-01-24T16:09:33;3.10;99.90
23591;DHT22;11973;52.098;7.582;2023-01-24T16:12:00;3.10;99.90
23591;DHT22;11973;52.098;7.582;2023-01-24T16:14:26;3.10;99.90
23591;DHT22;11973;52.098;7.582;2023-01-24T16:16:54;3.10;99.90
23591;DHT22;11973;52.098;7.582;2023-01-24T16:19:21;3.00;99.90
23591;DHT22;11973;52.098;7.582;2023-01-24T16:21:49;3.00;99.90
23591;DHT22;11973;52.098;7.582;2023-01-24T16:24:16;3.00;99.90
23591;DHT22;11973;52.098;7.582;2023-01-24T16:26:52;3.00;99.90
23591;DHT22;11973;52.098;7.582;2023-01-24T16:29:25;3.20;99.90
23591;DHT22;11973;52.098;7.582;2023-01-24T16:31:52;3.00;99.90
23591;DHT22;11973;52.098;7.582;2023-01-24T16:34:18;2.90;99.90
23591;DHT22;11973;52.098;7.582;2023-01-24T16:36:45;2.90;99.90
23591;DHT22;11973;52.098;7.582;2023-01-24T16:39:19;2.90;99.90
23591;DHT22;11973;52.098;7.582;2023-01-24T16:41:47;2.90;99.90
23591;DHT22;11973;52.098;7.582;2023-01-24T16:44:13;3.00;99.90
23591;DHT22;11973;52.098;7.582;2023-01-24T16:46:39;2.80;99.90
23591;DHT22;11973;52.098;7.582;2023-01-24T16:49:06;2.90;99.90
23591;DHT22;11973;52.098;7.582;2023-01-24T16:51:31;2.80;99.90
23591;DHT22;11973;52.098;7.582;2023-01-24T16:53:57;2.80;99.90
23591;DHT22;11973;52.098;7.582;2023-01-24T16:56:24;2.80;99.90
23591;DHT22;11973;52.098;7.582;2023-01-24T16:58:55;2.80;99.90
23591;DHT22;11973;52.098;7.582;2023-01-24T17:01:21;2.80;99.90
23591;DHT22;11973;52.098;7.582;2023-01-24T17:03:52;2.80;99.90
23591;DHT22;11973;52.098;7.582;2023-01-24T17:06:19;2.90;99.90
23591;DHT22;11973;52.098;7.582;2023-01-24T17:08:52;2.80;99.90
23591;DHT22;11973;52.098;7.582;2023-01-24T17:11:17;2.80;99.90
23591;DHT22;11973;52.098;7.582;2023-01-24T17:13:46;2.80;99.90
23591;DHT22;11973;52.098;7.582;2023-01-24T17:16:12;2.80;99.90
23591;DHT22;11973;52.098;7.582;2023-01-24T17:18:38;2.70;99.90
23591;DHT22;11973;52.098;7.582;2023-01-24T17:21:08;2.80;99.90
23591;DHT22;11973;52.098;7.582;2023-01-24T17:23:35;2.70;99.90
23591;DHT22;11973;52.098;7.582;2023-01-24T17:26:09;2.70;99.90
23591;DHT22;11973;52.098;7.582;2023-01-24T17:28:36;2.70;99.90
23591;DHT22;11973;52.098;7.582;2023-01-24T17:31:12;2.70;99.90
23591;DHT22;11973;52.098;7.582;2023-01-24T17:33:38;2.70;99.90
23591;DHT22;11973;52.098;7.582;2023-01-24T17:36:05;2.90;99.90
23591;DHT22;11973;52.098;7.582;2023-01-24T17:38:31;2.70;99.90
23591;DHT22;11973;52.098;7.582;2023-01-24T17:40:57;2.80;99.90
23591;DHT22;11973;52.098;7.582;2023-01-24T17:43:23;2.70;99.90
23591;DHT22;11973;52.098;7.582;2023-01-24T17:45:51;2.70;99.90
23591;DHT22;11973;52.098;7.582;2023-01-24T17:48:17;2.80;99.90
23591;DHT22;11973;52.098;7.582;2023-01-24T17:50:43;2.70;99.90
23591;DHT22;11973;52.098;7.582;2023-01-24T17:53:09;2.70;99.90
23591;DHT22;11973;52.098;7.582;2023-01-24T17:55:34;2.60;99.90
23591;DHT22;11973;52.098;7.582;2023-01-24T17:58:00;2.60;99.90
23591;DHT22;11973;52.098;7.582;2023-01-24T18:00:26;2.60;99.90
23591;DHT22;11973;52.098;7.582;2023-01-24T18:02:52;2.60;99.90
23591;DHT22;11973;52.098;7.582;2023-01-24T18:05:18;2.60;99.90
23591;DHT22;11973;52.098;7.582;2023-01-24T18:07:43;2.60;99.90
23591;DHT22;11973;52.098;7.582;2023-01-24T18:10:09;2.60;99.90
23591;DHT22;11973;52.098;7.582;2023-01-24T18:12:35;2.60;99.90
23591;DHT22;11973;52.098;7.582;2023-01-24T18:15:01;2.60;99.90
23591;DHT22;11973;52.098;7.582;2023-01-24T18:17:27;2.60;99.90
23591;DHT22;11973;52.098;7.582;2023-01-24T18:19:53;2.60;99.90
23591;DHT22;11973;52.098;7.582;2023-01-24T18:22:19;2.60;99.90
23591;DHT22;11973;52.098;7.582;2023-01-24T18:24:44;2.60;99.90
23591;DHT22;11973;52.098;7.582;2023-01-24T18:27:10;2.60;99.90
23591;DHT22;11973;52.098;7.582;2023-01-24T18:29:36;2.60;99.90
23591;DHT22;11973;52.098;7.582;2023-01-24T18:32:03;2.50;99.90
23591;DHT22;11973;52.098;7.582;2023-01-24T18:34:28;2.50;99.90
23591;DHT22;11973;52.098;7.582;2023-01-24T18:36:54;2.50;99.90
23591;DHT22;11973;52.098;7.582;2023-01-24T18:39:21;2.60;99.90
23591;DHT22;11973;52.098;7.582;2023-01-24T18:41:47;2.50;99.90
23591;DHT22;11973;52.098;7.582;2023-01-24T18:44:13;2.50;99.90
23591;DHT22;11973;52.098;7.582;2023-01-24T18:46:40;2.50;99.90
23591;DHT22;11973;52.098;7.582;2023-01-24T18:49:06;2.50;99.90
23591;DHT22;11973;52.098;7.582;2023-01-24T18:51:32;2.50;99.90
23591;DHT22;11973;52.098;7.582;2023-01-24T18:53:58;2.50;99.90
23591;DHT22;11973;52.098;7.582;2023-01-24T18:56:24;2.50;99.90
23591;DHT22;11973;52.098;7.582;2023-01-24T18:58:49;2.50;99.90
23591;DHT22;11973;52.098;7.582;2023-01-24T19:03:42;2.50;99.90
23591;DHT22;11973;52.098;7.582;2023-01-24T19:06:09;2.50;99.90
23591;DHT22;11973;52.098;7.582;2023-01-24T19:08:38;2.50;99.90
23591;DHT22;11973;52.098;7.582;2023-01-24T19:11:12;2.50;99.90
23591;DHT22;11973;52.098;7.582;2023-01-24T19:13:38;2.40;99.90
23591;DHT22;11973;52.098;7.582;2023-01-24T19:16:04;2.40;99.90
23591;DHT22;11973;52.098;7.582;2023-01-24T19:18:30;2.40;99.90
23591;DHT22;11973;52.098;7.582;2023-01-24T19:20:56;2.40;99.90